createdAt,value
2022-10-11T00:00:11.189Z,1017.97
2022-10-11T00:01:11.198Z,1017.99
2022-10-11T00:02:11.202Z,1018.05
2022-10-11T00:03:11.131Z,1018.08
2022-10-11T00:04:11.232Z,1018.13
2022-10-11T00:05:11.121Z,1018.13
2022-10-11T00:06:11.195Z,1018.15
2022-10-11T00:07:11.165Z,1018.14
2022-10-11T00:08:11.202Z,1018.17
2022-10-11T00:09:11.169Z,1018.24
2022-10-11T00:10:11.032Z,1018.22
2022-10-11T00:11:11.129Z,1018.30
2022-10-11T00:12:10.994Z,1018.27
2022-10-11T00:13:11.055Z,1018.30
2022-10-11T00:14:11.026Z,1018.28
2022-10-11T00:15:11.078Z,1018.24
2022-10-11T00:16:11.017Z,1018.29
2022-10-11T00:17:10.913Z,1018.32
2022-10-11T00:18:10.950Z,1018.33
2022-10-11T00:19:10.877Z,1018.31
2022-10-11T00:20:10.907Z,1018.32
2022-10-11T00:21:10.951Z,1018.38
2022-10-11T00:22:10.866Z,1018.36
2022-10-11T00:23:10.936Z,1018.35
2022-10-11T00:24:10.893Z,1018.34
2022-10-11T00:25:10.864Z,1018.36
2022-10-11T00:26:10.824Z,1018.39
2022-10-11T00:27:10.797Z,1018.42
2022-10-11T00:28:10.870Z,1018.43
2022-10-11T00:29:10.804Z,1018.49
2022-10-11T00:30:10.817Z,1018.56
2022-10-11T00:31:10.774Z,1018.57
2022-10-11T00:32:10.812Z,1018.67
2022-10-11T00:33:10.717Z,1018.69
2022-10-11T00:34:10.783Z,1018.76
2022-10-11T00:35:10.740Z,1018.73
2022-10-11T00:36:10.686Z,1018.76
2022-10-11T00:37:10.656Z,1018.77
2022-10-11T00:38:10.716Z,1018.80
2022-10-11T00:39:10.676Z,1018.81
2022-10-11T00:40:10.633Z,1018.82
2022-10-11T00:41:11.175Z,1018.79
2022-10-11T00:42:10.609Z,1018.83
2022-10-11T00:43:10.596Z,1018.85
2022-10-11T00:44:10.530Z,1018.80
2022-10-11T00:45:11.402Z,1018.75
2022-10-11T00:46:10.555Z,1018.74
2022-10-11T00:47:10.517Z,1018.71
2022-10-11T00:48:10.545Z,1018.78
2022-10-11T00:49:10.525Z,1018.72
2022-10-11T00:50:10.587Z,1018.78
2022-10-11T00:51:10.473Z,1018.74
2022-10-11T00:52:10.453Z,1018.76
2022-10-11T00:53:10.428Z,1018.71
2022-10-11T00:54:10.398Z,1018.70
2022-10-11T00:55:10.431Z,1018.73
2022-10-11T00:56:10.389Z,1018.72
2022-10-11T00:57:10.402Z,1018.78
2022-10-11T00:58:10.398Z,1018.83
2022-10-11T00:59:10.408Z,1018.86
2022-10-11T01:00:10.420Z,1018.89
2022-10-11T01:01:10.537Z,1018.93
2022-10-11T01:02:10.296Z,1018.95
2022-10-11T01:03:11.238Z,1018.97
2022-10-11T01:04:10.304Z,1018.99
2022-10-11T01:05:28.561Z,1019.00
2022-10-11T01:06:11.281Z,1018.99
2022-10-11T01:07:10.252Z,1019.04
2022-10-11T01:08:10.294Z,1019.03
2022-10-11T01:09:10.268Z,1019.02
2022-10-11T01:10:10.211Z,1019.03
2022-10-11T01:11:10.295Z,1019.01
2022-10-11T01:12:11.315Z,1019.05
2022-10-11T01:13:10.190Z,1019.05
2022-10-11T01:14:10.203Z,1019.07
2022-10-11T01:15:10.281Z,1019.05
2022-10-11T01:16:10.127Z,1019.13
2022-10-11T01:17:10.890Z,1019.08
2022-10-11T01:18:10.084Z,1019.09
2022-10-11T01:19:10.149Z,1019.12
2022-10-11T01:20:11.564Z,1019.05
2022-10-11T01:21:10.047Z,1019.10
2022-10-11T01:22:10.006Z,1019.12
2022-10-11T01:23:10.033Z,1019.10
2022-10-11T01:24:10.681Z,1019.13
2022-10-11T01:25:10.015Z,1019.14
2022-10-11T01:26:09.987Z,1019.15
2022-10-11T01:27:10.094Z,1019.17
2022-10-11T01:28:10.081Z,1019.16
2022-10-11T01:29:10.005Z,1019.14
2022-10-11T01:30:09.962Z,1019.18
2022-10-11T01:31:09.914Z,1019.17
2022-10-11T01:32:10.731Z,1019.19
2022-10-11T01:33:09.877Z,1019.20
2022-10-11T01:34:09.866Z,1019.19
2022-10-11T01:35:10.696Z,1019.17
2022-10-11T01:36:10.688Z,1019.18
2022-10-11T01:37:09.873Z,1019.17
2022-10-11T01:38:10.670Z,1019.18
2022-10-11T01:39:09.844Z,1019.19
2022-10-11T01:40:10.869Z,1019.16
2022-10-11T01:41:11.301Z,1019.17
2022-10-11T01:42:09.890Z,1019.15
2022-10-11T01:43:09.752Z,1019.13
2022-10-11T01:44:09.789Z,1019.13
2022-10-11T01:45:09.782Z,1019.10
2022-10-11T01:46:10.670Z,1019.11
2022-10-11T01:47:10.761Z,1019.18
2022-10-11T01:48:09.805Z,1019.16
2022-10-11T01:49:09.647Z,1019.19
2022-10-11T01:50:09.889Z,1019.22
2022-10-11T01:51:10.528Z,1019.21
2022-10-11T01:52:10.347Z,1019.20
2022-10-11T01:53:09.580Z,1019.18
2022-10-11T01:54:09.638Z,1019.22
2022-10-11T01:55:10.462Z,1019.18
2022-10-11T01:56:10.469Z,1019.15
2022-10-11T01:57:10.379Z,1019.18
2022-10-11T01:58:09.567Z,1019.24
2022-10-11T01:59:09.544Z,1019.27
2022-10-11T02:00:09.552Z,1019.29
2022-10-11T02:01:09.559Z,1019.26
2022-10-11T02:02:10.457Z,1019.23
2022-10-11T02:03:10.313Z,1019.32
2022-10-11T02:04:10.921Z,1019.35
2022-10-11T02:05:09.492Z,1019.28
2022-10-11T02:06:09.462Z,1019.33
2022-10-11T02:07:09.466Z,1019.36
2022-10-11T02:08:10.362Z,1019.35
2022-10-11T02:09:09.507Z,1019.35
2022-10-11T02:10:09.383Z,1019.32
2022-10-11T02:11:09.399Z,1019.38
2022-10-11T02:12:09.542Z,1019.43
2022-10-11T02:13:09.412Z,1019.41
2022-10-11T02:14:09.584Z,1019.43
2022-10-11T02:15:09.575Z,1019.44
2022-10-11T02:16:09.391Z,1019.48
2022-10-11T02:17:09.303Z,1019.46
2022-10-11T02:18:09.335Z,1019.50
2022-10-11T02:19:09.305Z,1019.51
2022-10-11T02:20:09.499Z,1019.53
2022-10-11T02:21:09.540Z,1019.59
2022-10-11T02:22:09.219Z,1019.54
2022-10-11T02:23:09.194Z,1019.55
2022-10-11T02:24:09.263Z,1019.58
2022-10-11T02:25:09.523Z,1019.57
2022-10-11T02:26:09.894Z,1019.57
2022-10-11T02:27:09.258Z,1019.61
2022-10-11T02:28:09.231Z,1019.61
2022-10-11T02:29:09.113Z,1019.65
2022-10-11T02:30:09.150Z,1019.63
2022-10-11T02:31:09.935Z,1019.65
2022-10-11T02:32:09.085Z,1019.61
2022-10-11T02:33:09.052Z,1019.63
2022-10-11T02:34:09.054Z,1019.69
2022-10-11T02:35:09.134Z,1019.67
2022-10-11T02:36:09.957Z,1019.75
2022-10-11T02:37:09.866Z,1019.73
2022-10-11T02:38:09.153Z,1019.79
2022-10-11T02:39:09.121Z,1019.79
2022-10-11T02:40:09.125Z,1019.78
2022-10-11T02:41:09.086Z,1019.77
2022-10-11T02:42:09.067Z,1019.74
2022-10-11T02:43:09.808Z,1019.73
2022-10-11T02:44:10.328Z,1019.71
2022-10-11T02:45:09.079Z,1019.74
2022-10-11T02:46:09.431Z,1019.74
2022-10-11T02:47:09.165Z,1019.76
2022-10-11T02:48:09.876Z,1019.80
2022-10-11T02:49:08.933Z,1019.78
2022-10-11T02:50:09.666Z,1019.81
2022-10-11T02:51:08.905Z,1019.80
2022-10-11T02:52:08.862Z,1019.86
2022-10-11T02:53:09.137Z,1019.85
2022-10-11T02:54:08.875Z,1019.83
2022-10-11T02:55:08.794Z,1019.83
2022-10-11T02:56:08.941Z,1019.83
2022-10-11T02:57:08.725Z,1019.80
2022-10-11T02:58:08.698Z,1019.90
2022-10-11T02:59:08.763Z,1019.82
2022-10-11T03:00:08.730Z,1019.80
2022-10-11T03:01:08.734Z,1019.81
2022-10-11T03:02:08.668Z,1019.79
2022-10-11T03:03:08.625Z,1019.84
2022-10-11T03:04:08.674Z,1019.83
2022-10-11T03:05:08.662Z,1019.85
2022-10-11T03:06:09.024Z,1019.86
2022-10-11T03:07:08.592Z,1019.83
2022-10-11T03:08:08.747Z,1019.78
2022-10-11T03:09:08.592Z,1019.62
2022-10-11T03:10:08.684Z,1019.65
2022-10-11T03:11:08.553Z,1019.69
2022-10-11T03:12:08.524Z,1019.71
2022-10-11T03:13:08.475Z,1019.63
2022-10-11T03:14:08.514Z,1019.63
2022-10-11T03:15:08.519Z,1019.64
2022-10-11T03:16:08.893Z,1019.62
2022-10-11T03:17:34.547Z,1019.74
2022-10-11T03:18:10.296Z,1019.82
2022-10-11T03:19:08.466Z,1019.95
2022-10-11T03:20:08.446Z,1019.98
2022-10-11T03:21:08.395Z,1020.12
2022-10-11T03:22:09.127Z,1020.15
2022-10-11T03:23:08.391Z,1020.11
2022-10-11T03:24:08.389Z,1020.17
2022-10-11T03:25:08.397Z,1020.17
2022-10-11T03:26:08.903Z,1020.18
2022-10-11T03:27:08.310Z,1020.18
2022-10-11T03:28:08.366Z,1020.21
2022-10-11T03:29:08.348Z,1020.19
2022-10-11T03:30:08.285Z,1020.19
2022-10-11T03:31:08.284Z,1020.19
2022-10-11T03:32:08.369Z,1020.22
2022-10-11T03:33:08.238Z,1020.28
2022-10-11T03:34:08.239Z,1020.27
2022-10-11T03:35:08.276Z,1020.27
2022-10-11T03:36:08.428Z,1020.26
2022-10-11T03:37:08.182Z,1020.24
2022-10-11T03:38:12.273Z,1020.25
2022-10-11T03:39:08.122Z,1020.24
2022-10-11T03:40:08.487Z,1020.29
2022-10-11T03:41:08.132Z,1020.25
2022-10-11T03:42:08.105Z,1020.26
2022-10-11T03:43:08.195Z,1020.26
2022-10-11T03:44:08.125Z,1020.30
2022-10-11T03:45:08.147Z,1020.34
2022-10-11T03:46:08.715Z,1020.33
2022-10-11T03:47:08.074Z,1020.33
2022-10-11T03:48:08.093Z,1020.35
2022-10-11T03:49:08.013Z,1020.34
2022-10-11T03:50:08.065Z,1020.39
2022-10-11T03:51:08.044Z,1020.32
2022-10-11T03:52:07.980Z,1020.37
2022-10-11T03:53:07.973Z,1020.42
2022-10-11T03:54:07.963Z,1020.43
2022-10-11T03:55:07.978Z,1020.44
2022-10-11T03:56:08.689Z,1020.45
2022-10-11T03:57:07.873Z,1020.49
2022-10-11T03:58:07.914Z,1020.49
2022-10-11T03:59:07.964Z,1020.48
2022-10-11T04:00:07.938Z,1020.50
2022-10-11T04:01:07.883Z,1020.58
2022-10-11T04:02:07.921Z,1020.52
2022-10-11T04:03:07.817Z,1020.55
2022-10-11T04:04:07.897Z,1020.64
2022-10-11T04:05:07.899Z,1020.69
2022-10-11T04:06:08.480Z,1020.61
2022-10-11T04:07:07.965Z,1020.54
2022-10-11T04:08:11.897Z,1020.44
2022-10-11T04:09:07.759Z,1020.47
2022-10-11T04:10:07.788Z,1020.46
2022-10-11T04:11:07.799Z,1020.43
2022-10-11T04:12:07.771Z,1020.43
2022-10-11T04:13:07.718Z,1020.42
2022-10-11T04:14:07.681Z,1020.38
2022-10-11T04:15:07.681Z,1020.44
2022-10-11T04:16:08.076Z,1020.46
2022-10-11T04:17:07.620Z,1020.39
2022-10-11T04:18:07.619Z,1020.46
2022-10-11T04:19:07.657Z,1020.48
2022-10-11T04:20:07.714Z,1020.43
2022-10-11T04:21:08.287Z,1020.54
2022-10-11T04:22:07.600Z,1020.52
2022-10-11T04:23:07.652Z,1020.61
2022-10-11T04:24:07.530Z,1020.67
2022-10-11T04:25:07.558Z,1020.65
2022-10-11T04:26:08.121Z,1020.71
2022-10-11T04:27:08.268Z,1020.71
2022-10-11T04:28:07.478Z,1020.73
2022-10-11T04:29:07.461Z,1020.77
2022-10-11T04:30:07.458Z,1020.85
2022-10-11T04:31:07.430Z,1020.85
2022-10-11T04:32:07.481Z,1020.91
2022-10-11T04:33:07.380Z,1020.92
2022-10-11T04:34:07.404Z,1020.93
2022-10-11T04:35:07.359Z,1020.90
2022-10-11T04:36:07.980Z,1020.98
2022-10-11T04:37:07.445Z,1020.96
2022-10-11T04:38:07.349Z,1020.90
2022-10-11T04:39:07.328Z,1020.91
2022-10-11T04:40:07.316Z,1020.94
2022-10-11T04:41:07.359Z,1020.95
2022-10-11T04:42:07.362Z,1020.98
2022-10-11T04:43:07.379Z,1020.95
2022-10-11T04:44:07.378Z,1020.97
2022-10-11T04:45:08.112Z,1021.02
2022-10-11T04:46:08.411Z,1021.01
2022-10-11T04:47:07.216Z,1020.99
2022-10-11T04:48:08.042Z,1021.06
2022-10-11T04:49:07.993Z,1020.99
2022-10-11T04:50:07.193Z,1020.99
2022-10-11T04:51:08.041Z,1020.98
2022-10-11T04:52:07.155Z,1021.00
2022-10-11T04:53:07.143Z,1020.98
2022-10-11T04:54:07.974Z,1021.01
2022-10-11T04:55:07.884Z,1020.96
2022-10-11T04:56:07.621Z,1020.99
2022-10-11T04:57:07.130Z,1021.00
2022-10-11T04:58:07.054Z,1020.94
2022-10-11T04:59:08.496Z,1020.84
2022-10-11T05:00:07.073Z,1020.84
2022-10-11T05:01:07.362Z,1020.83
2022-10-11T05:02:07.196Z,1020.77
2022-10-11T05:03:07.874Z,1020.79
2022-10-11T05:04:07.784Z,1020.74
2022-10-11T05:05:08.061Z,1020.78
2022-10-11T05:06:07.643Z,1020.83
2022-10-11T05:07:07.273Z,1020.79
2022-10-11T05:08:07.934Z,1020.86
2022-10-11T05:09:06.934Z,1020.82
2022-10-11T05:10:06.950Z,1020.90
2022-10-11T05:11:06.897Z,1020.93
2022-10-11T05:12:07.788Z,1020.97
2022-10-11T05:13:06.914Z,1020.96
2022-10-11T05:14:07.590Z,1020.99
2022-10-11T05:15:06.845Z,1021.03
2022-10-11T05:16:10.782Z,1021.05
2022-10-11T05:17:06.860Z,1021.15
2022-10-11T05:18:07.716Z,1021.12
2022-10-11T05:19:07.802Z,1021.14
2022-10-11T05:20:07.558Z,1021.15
2022-10-11T05:21:07.736Z,1021.14
2022-10-11T05:22:06.736Z,1021.19
2022-10-11T05:23:06.802Z,1021.21
2022-10-11T05:24:06.715Z,1021.20
2022-10-11T05:25:07.564Z,1021.20
2022-10-11T05:26:07.132Z,1021.20
2022-10-11T05:27:06.732Z,1021.16
2022-10-11T05:28:07.636Z,1021.21
2022-10-11T05:29:07.427Z,1021.27
2022-10-11T05:30:06.626Z,1021.29
2022-10-11T05:31:07.501Z,1021.29
2022-10-11T05:32:07.405Z,1021.29
2022-10-11T05:33:06.650Z,1021.27
2022-10-11T05:34:07.458Z,1021.25
2022-10-11T05:35:07.373Z,1021.31
2022-10-11T05:36:07.814Z,1021.32
2022-10-11T05:37:06.542Z,1021.41
2022-10-11T05:38:06.508Z,1021.41
2022-10-11T05:39:06.665Z,1021.47
2022-10-11T05:40:07.408Z,1021.48
2022-10-11T05:41:07.299Z,1021.48
2022-10-11T05:42:09.902Z,1021.46
2022-10-11T05:43:06.528Z,1021.38
2022-10-11T05:44:06.450Z,1021.46
2022-10-11T05:45:06.407Z,1021.43
2022-10-11T05:46:06.766Z,1021.41
2022-10-11T05:47:07.241Z,1021.44
2022-10-11T05:48:06.561Z,1021.48
2022-10-11T05:49:06.391Z,1021.51
2022-10-11T05:50:06.492Z,1021.53
2022-10-11T05:51:07.117Z,1021.57
2022-10-11T05:52:06.522Z,1021.58
2022-10-11T05:53:06.491Z,1021.60
2022-10-11T05:54:06.581Z,1021.64
2022-10-11T05:55:07.297Z,1021.66
2022-10-11T05:56:06.637Z,1021.65
2022-10-11T05:57:07.041Z,1021.67
2022-10-11T05:58:06.215Z,1021.64
2022-10-11T05:59:06.307Z,1021.67
2022-10-11T06:00:06.210Z,1021.64
2022-10-11T06:01:07.247Z,1021.64
2022-10-11T06:02:07.088Z,1021.66
2022-10-11T06:03:06.501Z,1021.69
2022-10-11T06:04:06.162Z,1021.77
2022-10-11T06:05:06.162Z,1021.81
2022-10-11T06:06:06.524Z,1021.94
2022-10-11T06:07:06.102Z,1021.91
2022-10-11T06:08:06.120Z,1021.94
2022-10-11T06:09:06.930Z,1022.01
2022-10-11T06:10:06.072Z,1021.99
2022-10-11T06:11:10.216Z,1021.99
2022-10-11T06:12:07.030Z,1021.96
2022-10-11T06:13:06.004Z,1022.01
2022-10-11T06:14:06.989Z,1022.01
2022-10-11T06:15:06.865Z,1021.98
2022-10-11T06:16:06.435Z,1021.99
2022-10-11T06:17:05.964Z,1022.03
2022-10-11T06:18:05.983Z,1021.99
2022-10-11T06:19:07.415Z,1021.99
2022-10-11T06:20:05.914Z,1021.97
2022-10-11T06:21:05.935Z,1022.02
2022-10-11T06:22:05.880Z,1022.00
2022-10-11T06:23:05.931Z,1022.02
2022-10-11T06:24:05.906Z,1021.97
2022-10-11T06:25:07.335Z,1022.02
2022-10-11T06:26:06.118Z,1022.01
2022-10-11T06:27:06.013Z,1022.02
2022-10-11T06:28:05.864Z,1022.06
2022-10-11T06:29:05.869Z,1022.02
2022-10-11T06:30:06.695Z,1022.05
2022-10-11T06:31:06.597Z,1022.05
2022-10-11T06:32:05.857Z,1022.05
2022-10-11T06:33:05.849Z,1022.07
2022-10-11T06:34:05.766Z,1022.08
2022-10-11T06:35:06.475Z,1022.03
2022-10-11T06:36:07.086Z,1022.07
2022-10-11T06:37:07.137Z,1022.08
2022-10-11T06:38:05.845Z,1022.13
2022-10-11T06:39:05.827Z,1022.09
2022-10-11T06:40:05.789Z,1022.14
2022-10-11T06:41:05.662Z,1022.19
2022-10-11T06:42:05.625Z,1022.14
2022-10-11T06:43:05.606Z,1022.11
2022-10-11T06:44:06.655Z,1022.10
2022-10-11T06:45:06.538Z,1022.08
2022-10-11T06:46:06.137Z,1022.10
2022-10-11T06:47:05.862Z,1022.12
2022-10-11T06:48:06.507Z,1022.09
2022-10-11T06:49:06.419Z,1022.01
2022-10-11T06:50:06.318Z,1022.02
2022-10-11T06:51:06.469Z,1022.09
2022-10-11T06:52:05.469Z,1022.14
2022-10-11T06:53:06.278Z,1022.17
2022-10-11T06:54:05.438Z,1022.14
2022-10-11T06:55:05.431Z,1022.20
2022-10-11T06:56:05.665Z,1022.26
2022-10-11T06:57:05.449Z,1022.27
2022-10-11T06:58:05.378Z,1022.30
2022-10-11T06:59:05.420Z,1022.29
2022-10-11T07:00:07.955Z,1022.33
2022-10-11T07:01:06.393Z,1022.41
2022-10-11T07:02:05.342Z,1022.47
2022-10-11T07:03:05.361Z,1022.50
2022-10-11T07:04:05.320Z,1022.58
2022-10-11T07:05:06.151Z,1022.56
2022-10-11T07:06:05.626Z,1022.60
2022-10-11T07:07:05.282Z,1022.59
2022-10-11T07:08:05.284Z,1022.57
2022-10-11T07:09:05.253Z,1022.56
2022-10-11T07:10:05.211Z,1022.63
2022-10-11T07:11:05.193Z,1022.62
2022-10-11T07:12:05.193Z,1022.61
2022-10-11T07:13:05.182Z,1022.63
2022-10-11T07:14:05.192Z,1022.61
2022-10-11T07:15:05.161Z,1022.62
2022-10-11T07:16:05.525Z,1022.61
2022-10-11T07:17:05.109Z,1022.64
2022-10-11T07:18:05.083Z,1022.58
2022-10-11T07:19:05.102Z,1022.59
2022-10-11T07:20:05.064Z,1022.61
2022-10-11T07:21:05.095Z,1022.61
2022-10-11T07:22:05.054Z,1022.59
2022-10-11T07:23:05.962Z,1022.59
2022-10-11T07:24:06.494Z,1022.58
2022-10-11T07:25:06.024Z,1022.57
2022-10-11T07:26:05.443Z,1022.58
2022-10-11T07:27:04.975Z,1022.60
2022-10-11T07:28:05.045Z,1022.57
2022-10-11T07:29:05.001Z,1022.58
2022-10-11T07:30:06.415Z,1022.54
2022-10-11T07:31:04.933Z,1022.55
2022-10-11T07:32:04.931Z,1022.52
2022-10-11T07:33:04.917Z,1022.49
2022-10-11T07:34:05.705Z,1022.48
2022-10-11T07:35:06.582Z,1022.45
2022-10-11T07:36:05.112Z,1022.37
2022-10-11T07:37:05.647Z,1022.41
2022-10-11T07:38:04.828Z,1022.45
2022-10-11T07:39:04.825Z,1022.44
2022-10-11T07:40:04.836Z,1022.42
2022-10-11T07:41:04.818Z,1022.44
2022-10-11T07:42:04.827Z,1022.43
2022-10-11T07:43:04.815Z,1022.53
2022-10-11T07:44:04.776Z,1022.58
2022-10-11T07:45:04.727Z,1022.55
2022-10-11T07:46:05.383Z,1022.53
2022-10-11T07:47:10.972Z,1022.54
2022-10-11T07:48:05.872Z,1022.56
2022-10-11T07:49:04.740Z,1022.52
2022-10-11T07:50:04.708Z,1022.60
2022-10-11T07:51:04.668Z,1022.53
2022-10-11T07:52:04.659Z,1022.59
2022-10-11T07:53:04.654Z,1022.67
2022-10-11T07:54:07.481Z,1022.67
2022-10-11T07:55:04.609Z,1022.66
2022-10-11T07:56:05.634Z,1022.70
2022-10-11T07:57:04.846Z,1022.64
2022-10-11T07:58:05.410Z,1022.70
2022-10-11T07:59:04.541Z,1022.67
2022-10-11T08:00:04.598Z,1022.67
2022-10-11T08:01:05.502Z,1022.69
2022-10-11T08:02:04.579Z,1022.71
2022-10-11T08:03:05.708Z,1022.67
2022-10-11T08:04:05.380Z,1022.67
2022-10-11T08:05:05.258Z,1022.66
2022-10-11T08:06:04.938Z,1022.68
2022-10-11T08:07:04.444Z,1022.67
2022-10-11T08:08:04.465Z,1022.69
2022-10-11T08:09:04.483Z,1022.69
2022-10-11T08:10:04.424Z,1022.69
2022-10-11T08:11:04.536Z,1022.76
2022-10-11T08:12:04.418Z,1022.73
2022-10-11T08:13:05.276Z,1022.75
2022-10-11T08:14:04.358Z,1022.76
2022-10-11T08:15:04.330Z,1022.72
2022-10-11T08:16:04.719Z,1022.71
2022-10-11T08:17:05.170Z,1022.72
2022-10-11T08:18:04.338Z,1022.76
2022-10-11T08:19:05.197Z,1022.75
2022-10-11T08:20:05.105Z,1022.75
2022-10-11T08:21:04.294Z,1022.73
2022-10-11T08:22:04.287Z,1022.74
2022-10-11T08:23:04.251Z,1022.76
2022-10-11T08:24:04.967Z,1022.80
2022-10-11T08:25:04.236Z,1022.81
2022-10-11T08:26:05.995Z,1022.85
2022-10-11T08:27:04.949Z,1022.86
2022-10-11T08:28:04.148Z,1022.90
2022-10-11T08:29:04.191Z,1022.86
2022-10-11T08:30:04.942Z,1022.87
2022-10-11T08:31:05.204Z,1022.87
2022-10-11T08:32:05.422Z,1022.88
2022-10-11T08:33:08.377Z,1022.90
2022-10-11T08:34:04.093Z,1022.89
2022-10-11T08:35:04.238Z,1022.86
2022-10-11T08:36:04.659Z,1022.95
2022-10-11T08:37:04.120Z,1022.94
2022-10-11T08:38:04.045Z,1022.89
2022-10-11T08:39:04.020Z,1022.93
2022-10-11T08:40:03.971Z,1022.90
2022-10-11T08:41:03.962Z,1022.93
2022-10-11T08:42:04.776Z,1022.91
2022-10-11T08:43:04.935Z,1022.92
2022-10-11T08:44:05.401Z,1022.92
2022-10-11T08:45:12.416Z,1022.94
2022-10-11T08:46:05.272Z,1022.96
2022-10-11T08:47:03.854Z,1022.94
2022-10-11T08:48:03.846Z,1022.96
2022-10-11T08:49:04.613Z,1023.00
2022-10-11T08:50:04.785Z,1023.00
2022-10-11T08:51:04.731Z,1023.03
2022-10-11T08:52:04.592Z,1022.99
2022-10-11T08:53:04.756Z,1022.95
2022-10-11T08:54:07.558Z,1022.95
2022-10-11T08:55:05.234Z,1022.96
2022-10-11T08:56:04.225Z,1022.98
2022-10-11T08:57:03.773Z,1023.02
2022-10-11T08:58:03.847Z,1022.94
2022-10-11T08:59:03.747Z,1022.94
2022-10-11T09:00:04.621Z,1022.97
2022-10-11T09:01:03.799Z,1022.95
2022-10-11T09:02:04.679Z,1023.01
2022-10-11T09:03:08.640Z,1023.09
2022-10-11T09:04:05.490Z,1023.06
2022-10-11T09:05:04.657Z,1023.11
2022-10-11T09:06:04.180Z,1023.09
2022-10-11T09:07:05.025Z,1023.13
2022-10-11T09:08:04.606Z,1023.08
2022-10-11T09:09:03.619Z,1023.16
2022-10-11T09:10:04.496Z,1023.22
2022-10-11T09:11:03.598Z,1023.15
2022-10-11T09:12:04.458Z,1023.18
2022-10-11T09:13:03.636Z,1023.18
2022-10-11T09:14:03.528Z,1023.16
2022-10-11T09:15:03.498Z,1023.16
2022-10-11T09:16:04.591Z,1023.19
2022-10-11T09:17:04.235Z,1023.15
2022-10-11T09:18:04.394Z,1023.18
2022-10-11T09:19:03.472Z,1023.21
2022-10-11T09:20:04.212Z,1023.19
2022-10-11T09:21:03.528Z,1023.23
2022-10-11T09:22:04.339Z,1023.20
2022-10-11T09:23:04.185Z,1023.25
2022-10-11T09:24:04.834Z,1023.23
2022-10-11T09:25:04.232Z,1023.26
2022-10-11T09:26:03.986Z,1023.24
2022-10-11T09:27:03.569Z,1023.21
2022-10-11T09:28:04.133Z,1023.24
2022-10-11T09:29:03.733Z,1023.23
2022-10-11T09:30:03.276Z,1023.24
2022-10-11T09:31:03.615Z,1023.24
2022-10-11T09:32:03.574Z,1023.23
2022-10-11T09:33:03.358Z,1023.27
2022-10-11T09:34:03.700Z,1023.25
2022-10-11T09:35:03.495Z,1023.25
2022-10-11T09:36:03.922Z,1023.26
2022-10-11T09:37:03.524Z,1023.25
2022-10-11T09:38:03.286Z,1023.26
2022-10-11T09:39:06.698Z,1023.28
2022-10-11T09:40:03.125Z,1023.28
2022-10-11T09:41:03.208Z,1023.22
2022-10-11T09:42:03.110Z,1023.23
2022-10-11T09:43:03.247Z,1023.23
2022-10-11T09:44:03.205Z,1023.25
2022-10-11T09:45:03.111Z,1023.26
2022-10-11T09:46:03.504Z,1023.29
2022-10-11T09:47:03.059Z,1023.27
2022-10-11T09:48:03.048Z,1023.34
2022-10-11T09:49:03.062Z,1023.27
2022-10-11T09:50:03.022Z,1023.28
2022-10-11T09:51:03.006Z,1023.32
2022-10-11T09:52:03.956Z,1023.35
2022-10-11T09:53:03.007Z,1023.34
2022-10-11T09:54:03.037Z,1023.32
2022-10-11T09:55:03.051Z,1023.32
2022-10-11T09:56:03.392Z,1023.33
2022-10-11T09:57:03.721Z,1023.34
2022-10-11T09:58:02.895Z,1023.30
2022-10-11T09:59:02.933Z,1023.36
2022-10-11T10:00:02.886Z,1023.36
2022-10-11T10:01:07.986Z,1023.32
2022-10-11T10:02:03.821Z,1023.32
2022-10-11T10:03:02.975Z,1023.31
2022-10-11T10:04:02.982Z,1023.32
2022-10-11T10:05:03.043Z,1023.41
2022-10-11T10:06:03.078Z,1023.38
2022-10-11T10:07:02.966Z,1023.43
2022-10-11T10:08:04.859Z,1023.42
2022-10-11T10:09:02.985Z,1023.45
2022-10-11T10:10:02.954Z,1023.49
2022-10-11T10:11:02.723Z,1023.45
2022-10-11T10:12:02.684Z,1023.49
2022-10-11T10:13:02.762Z,1023.50
2022-10-11T10:14:02.655Z,1023.50
2022-10-11T10:15:02.725Z,1023.51
2022-10-11T10:16:03.009Z,1023.53
2022-10-11T10:17:03.586Z,1023.56
2022-10-11T10:18:02.636Z,1023.56
2022-10-11T10:19:02.976Z,1023.55
2022-10-11T10:20:02.546Z,1023.55
2022-10-11T10:21:02.526Z,1023.64
2022-10-11T10:22:02.527Z,1023.69
2022-10-11T10:23:02.498Z,1023.75
2022-10-11T10:24:02.536Z,1023.75
2022-10-11T10:25:02.496Z,1023.78
2022-10-11T10:26:02.764Z,1023.78
2022-10-11T10:27:02.487Z,1023.74
2022-10-11T10:28:02.462Z,1023.72
2022-10-11T10:29:02.433Z,1023.72
2022-10-11T10:30:02.539Z,1023.73
2022-10-11T10:31:03.277Z,1023.71
2022-10-11T10:32:13.909Z,1023.72
2022-10-11T10:33:04.361Z,1023.79
2022-10-11T10:34:03.242Z,1023.74
2022-10-11T10:35:02.387Z,1023.76
2022-10-11T10:36:02.744Z,1023.73
2022-10-11T10:37:02.352Z,1023.80
2022-10-11T10:38:02.311Z,1023.81
2022-10-11T10:39:02.377Z,1023.80
2022-10-11T10:40:02.302Z,1023.78
2022-10-11T10:41:02.339Z,1023.74
2022-10-11T10:42:02.314Z,1023.75
2022-10-11T10:43:02.328Z,1023.78
2022-10-11T10:44:02.212Z,1023.76
2022-10-11T10:45:02.193Z,1023.79
2022-10-11T10:46:02.412Z,1023.80
2022-10-11T10:47:02.197Z,1023.77
2022-10-11T10:48:02.211Z,1023.70
2022-10-11T10:49:28.699Z,1023.75
2022-10-11T10:50:03.596Z,1023.79
2022-10-11T10:51:02.119Z,1023.80
2022-10-11T10:52:02.096Z,1023.83
2022-10-11T10:53:02.227Z,1023.82
2022-10-11T10:54:02.147Z,1023.79
2022-10-11T10:55:02.195Z,1023.89
2022-10-11T10:56:02.393Z,1023.82
2022-10-11T10:57:02.104Z,1023.81
2022-10-11T10:58:02.110Z,1023.82
2022-10-11T10:59:02.037Z,1023.81
2022-10-11T11:00:02.011Z,1023.79
2022-10-11T11:01:01.968Z,1023.82
2022-10-11T11:02:15.889Z,1023.83
2022-10-11T11:03:03.082Z,1023.84
2022-10-11T11:04:02.127Z,1023.83
2022-10-11T11:05:02.252Z,1023.85
2022-10-11T11:06:02.226Z,1023.86
2022-10-11T11:07:01.881Z,1023.85
2022-10-11T11:08:01.881Z,1023.88
2022-10-11T11:09:02.365Z,1023.91
2022-10-11T11:10:01.939Z,1023.86
2022-10-11T11:11:01.873Z,1023.88
2022-10-11T11:12:01.825Z,1023.90
2022-10-11T11:13:01.905Z,1023.94
2022-10-11T11:14:01.873Z,1024.00
2022-10-11T11:15:01.832Z,1024.02
2022-10-11T11:16:01.910Z,1024.01
2022-10-11T11:17:01.764Z,1023.95
2022-10-11T11:18:02.155Z,1023.95
2022-10-11T11:19:01.927Z,1023.95
2022-10-11T11:20:01.801Z,1023.95
2022-10-11T11:21:01.857Z,1023.92
2022-10-11T11:22:01.737Z,1023.99
2022-10-11T11:23:02.248Z,1023.95
2022-10-11T11:24:02.550Z,1023.96
2022-10-11T11:25:01.748Z,1023.99
2022-10-11T11:26:03.582Z,1023.96
2022-10-11T11:27:01.779Z,1023.96
2022-10-11T11:28:02.451Z,1023.91
2022-10-11T11:29:01.630Z,1023.97
2022-10-11T11:30:02.442Z,1024.00
2022-10-11T11:31:02.498Z,1024.00
2022-10-11T11:32:02.199Z,1023.97
2022-10-11T11:33:02.445Z,1023.99
2022-10-11T11:34:02.394Z,1024.00
2022-10-11T11:35:01.713Z,1024.00
2022-10-11T11:36:02.613Z,1023.95
2022-10-11T11:37:02.480Z,1023.99
2022-10-11T11:38:06.247Z,1024.05
2022-10-11T11:39:02.566Z,1023.95
2022-10-11T11:40:02.358Z,1023.99
2022-10-11T11:41:01.495Z,1023.93
2022-10-11T11:42:02.385Z,1023.91
2022-10-11T11:43:01.404Z,1023.91
2022-10-11T11:44:01.427Z,1023.89
2022-10-11T11:45:01.421Z,1023.97
2022-10-11T11:46:01.375Z,1023.98
2022-10-11T11:47:01.448Z,1023.91
2022-10-11T11:48:01.425Z,1023.94
2022-10-11T11:49:01.337Z,1023.97
2022-10-11T11:50:01.357Z,1023.98
2022-10-11T11:51:01.338Z,1023.97
2022-10-11T11:52:01.331Z,1023.98
2022-10-11T11:53:01.434Z,1024.02
2022-10-11T11:54:02.309Z,1023.98
2022-10-11T11:55:04.011Z,1023.99
2022-10-11T11:56:01.481Z,1024.02
2022-10-11T11:57:01.220Z,1024.02
2022-10-11T11:58:06.777Z,1024.07
2022-10-11T11:59:02.300Z,1023.95
2022-10-11T12:00:01.213Z,1023.94
2022-10-11T12:01:01.199Z,1023.93
2022-10-11T12:02:02.002Z,1023.92
2022-10-11T12:03:01.190Z,1023.92
2022-10-11T12:04:02.024Z,1023.98
2022-10-11T12:05:01.123Z,1023.97